sensor_id;sensor_type;location;lat;lon;timestamp;P1;durP1;ratioP1;P2;durP2;ratioP2
70444;SDS011;57902;49.638;11.070;2024-03-25T00:02:13;7.38;;;2.63;;
70444;SDS011;57902;49.638;11.070;2024-03-25T00:04:39;6.25;;;2.60;;
70444;SDS011;57902;49.638;11.070;2024-03-25T00:07:04;6.50;;;2.67;;
70444;SDS011;57902;49.638;11.070;2024-03-25T00:09:30;5.38;;;2.53;;
70444;SDS011;57902;49.638;11.070;2024-03-25T00:11:56;5.85;;;1.90;;
70444;SDS011;57902;49.638;11.070;2024-03-25T00:14:21;6.13;;;2.58;;
70444;SDS011;57902;49.638;11.070;2024-03-25T00:16:47;5.65;;;2.58;;
70444;SDS011;57902;49.638;11.070;2024-03-25T00:19:13;7.78;;;2.70;;
70444;SDS011;57902;49.638;11.070;2024-03-25T00:21:39;7.28;;;2.70;;
70444;SDS011;57902;49.638;11.070;2024-03-25T00:24:04;9.00;;;2.45;;
70444;SDS011;57902;49.638;11.070;2024-03-25T00:26:30;7.50;;;2.45;;
70444;SDS011;57902;49.638;11.070;2024-03-25T00:28:56;5.72;;;2.28;;
70444;SDS011;57902;49.638;11.070;2024-03-25T00:31:21;8.88;;;2.60;;
70444;SDS011;57902;49.638;11.070;2024-03-25T00:33:47;8.65;;;2.30;;
70444;SDS011;57902;49.638;11.070;2024-03-25T00:36:12;6.80;;;2.40;;
70444;SDS011;57902;49.638;11.070;2024-03-25T00:38:38;7.30;;;2.65;;
70444;SDS011;57902;49.638;11.070;2024-03-25T00:41:04;5.68;;;2.38;;
70444;SDS011;57902;49.638;11.070;2024-03-25T00:43:29;7.30;;;2.33;;
70444;SDS011;57902;49.638;11.070;2024-03-25T00:45:55;6.93;;;3.00;;
70444;SDS011;57902;49.638;11.070;2024-03-25T00:48:24;10.20;;;2.80;;
70444;SDS011;57902;49.638;11.070;2024-03-25T00:50:50;5.32;;;2.50;;
70444;SDS011;57902;49.638;11.070;2024-03-25T00:53:16;8.10;;;2.67;;
70444;SDS011;57902;49.638;11.070;2024-03-25T00:55:41;5.63;;;2.38;;
70444;SDS011;57902;49.638;11.070;2024-03-25T00:58:07;6.03;;;2.40;;
70444;SDS011;57902;49.638;11.070;2024-03-25T01:00:32;8.25;;;2.78;;
70444;SDS011;57902;49.638;11.070;2024-03-25T01:02:58;6.95;;;2.67;;
70444;SDS011;57902;49.638;11.070;2024-03-25T01:05:23;7.45;;;2.90;;
70444;SDS011;57902;49.638;11.070;2024-03-25T01:07:49;6.78;;;2.78;;
70444;SDS011;57902;49.638;11.070;2024-03-25T01:10:15;8.20;;;2.90;;
70444;SDS011;57902;49.638;11.070;2024-03-25T01:12:41;6.38;;;2.63;;
70444;SDS011;57902;49.638;11.070;2024-03-25T01:15:07;8.05;;;2.70;;
70444;SDS011;57902;49.638;11.070;2024-03-25T01:17:38;6.47;;;2.40;;
70444;SDS011;57902;49.638;11.070;2024-03-25T01:20:04;6.07;;;2.65;;
70444;SDS011;57902;49.638;11.070;2024-03-25T01:22:30;5.45;;;2.55;;
70444;SDS011;57902;49.638;11.070;2024-03-25T01:24:56;7.60;;;2.35;;
70444;SDS011;57902;49.638;11.070;2024-03-25T01:27:22;7.13;;;2.40;;
70444;SDS011;57902;49.638;11.070;2024-03-25T01:29:48;8.52;;;2.70;;
70444;SDS011;57902;49.638;11.070;2024-03-25T01:32:14;6.82;;;2.60;;
70444;SDS011;57902;49.638;11.070;2024-03-25T01:34:39;5.53;;;2.50;;
70444;SDS011;57902;49.638;11.070;2024-03-25T01:37:05;5.30;;;2.65;;
70444;SDS011;57902;49.638;11.070;2024-03-25T01:39:31;7.53;;;2.83;;
70444;SDS011;57902;49.638;11.070;2024-03-25T01:41:57;6.68;;;2.40;;
70444;SDS011;57902;49.638;11.070;2024-03-25T01:44:23;5.63;;;2.38;;
70444;SDS011;57902;49.638;11.070;2024-03-25T01:46:49;7.40;;;2.80;;
70444;SDS011;57902;49.638;11.070;2024-03-25T01:49:14;6.35;;;2.53;;
70444;SDS011;57902;49.638;11.070;2024-03-25T01:51:40;5.78;;;2.38;;
70444;SDS011;57902;49.638;11.070;2024-03-25T01:54:07;6.50;;;2.45;;
70444;SDS011;57902;49.638;11.070;2024-03-25T01:56:33;4.90;;;2.10;;
70444;SDS011;57902;49.638;11.070;2024-03-25T01:59:01;7.65;;;2.78;;
70444;SDS011;57902;49.638;11.070;2024-03-25T02:01:28;6.55;;;2.53;;
70444;SDS011;57902;49.638;11.070;2024-03-25T02:03:54;5.88;;;2.60;;
70444;SDS011;57902;49.638;11.070;2024-03-25T02:06:21;6.90;;;2.60;;
70444;SDS011;57902;49.638;11.070;2024-03-25T02:08:49;5.75;;;2.22;;
70444;SDS011;57902;49.638;11.070;2024-03-25T02:11:15;7.32;;;2.58;;
70444;SDS011;57902;49.638;11.070;2024-03-25T02:13:41;5.57;;;2.30;;
70444;SDS011;57902;49.638;11.070;2024-03-25T02:16:07;6.93;;;2.58;;
70444;SDS011;57902;49.638;11.070;2024-03-25T02:18:32;5.78;;;2.65;;
70444;SDS011;57902;49.638;11.070;2024-03-25T02:20:58;6.75;;;2.35;;
70444;SDS011;57902;49.638;11.070;2024-03-25T02:23:25;7.70;;;2.63;;
70444;SDS011;57902;49.638;11.070;2024-03-25T02:25:52;5.10;;;2.17;;
70444;SDS011;57902;49.638;11.070;2024-03-25T02:28:19;6.93;;;2.42;;
70444;SDS011;57902;49.638;11.070;2024-03-25T02:30:45;8.63;;;2.33;;
70444;SDS011;57902;49.638;11.070;2024-03-25T02:33:11;5.90;;;2.40;;
70444;SDS011;57902;49.638;11.070;2024-03-25T02:35:37;6.35;;;2.35;;
70444;SDS011;57902;49.638;11.070;2024-03-25T02:38:04;7.28;;;2.40;;
70444;SDS011;57902;49.638;11.070;2024-03-25T02:40:31;6.72;;;2.60;;
70444;SDS011;57902;49.638;11.070;2024-03-25T02:42:57;8.35;;;2.50;;
70444;SDS011;57902;49.638;11.070;2024-03-25T02:45:23;8.23;;;2.10;;
70444;SDS011;57902;49.638;11.070;2024-03-25T02:47:50;6.35;;;2.40;;
70444;SDS011;57902;49.638;11.070;2024-03-25T02:50:16;6.45;;;2.50;;
70444;SDS011;57902;49.638;11.070;2024-03-25T02:52:41;7.40;;;2.70;;
70444;SDS011;57902;49.638;11.070;2024-03-25T02:55:07;6.88;;;2.40;;
70444;SDS011;57902;49.638;11.070;2024-03-25T02:57:32;5.13;;;2.30;;
70444;SDS011;57902;49.638;11.070;2024-03-25T02:59:58;6.47;;;2.30;;
70444;SDS011;57902;49.638;11.070;2024-03-25T03:02:24;8.15;;;2.60;;
70444;SDS011;57902;49.638;11.070;2024-03-25T03:04:49;8.23;;;2.67;;
70444;SDS011;57902;49.638;11.070;2024-03-25T03:07:15;6.88;;;2.40;;
70444;SDS011;57902;49.638;11.070;2024-03-25T03:09:40;8.85;;;2.40;;
70444;SDS011;57902;49.638;11.070;2024-03-25T03:12:06;6.50;;;2.60;;
70444;SDS011;57902;49.638;11.070;2024-03-25T03:14:31;8.43;;;2.50;;
70444;SDS011;57902;49.638;11.070;2024-03-25T03:16:57;6.32;;;2.45;;
70444;SDS011;57902;49.638;11.070;2024-03-25T03:19:26;5.40;;;2.35;;
70444;SDS011;57902;49.638;11.070;2024-03-25T03:21:53;7.25;;;2.67;;
70444;SDS011;57902;49.638;11.070;2024-03-25T03:24:19;8.77;;;2.70;;
70444;SDS011;57902;49.638;11.070;2024-03-25T03:26:44;5.45;;;2.50;;
70444;SDS011;57902;49.638;11.070;2024-03-25T03:29:10;6.80;;;2.85;;
70444;SDS011;57902;49.638;11.070;2024-03-25T03:31:36;5.15;;;2.25;;
70444;SDS011;57902;49.638;11.070;2024-03-25T03:34:02;6.22;;;2.30;;
70444;SDS011;57902;49.638;11.070;2024-03-25T03:36:28;8.20;;;2.40;;
70444;SDS011;57902;49.638;11.070;2024-03-25T03:38:54;7.22;;;2.67;;
70444;SDS011;57902;49.638;11.070;2024-03-25T03:41:20;6.18;;;2.53;;
70444;SDS011;57902;49.638;11.070;2024-03-25T03:43:46;6.47;;;2.53;;
70444;SDS011;57902;49.638;11.070;2024-03-25T03:46:12;8.25;;;2.55;;
70444;SDS011;57902;49.638;11.070;2024-03-25T03:48:38;5.20;;;2.40;;
70444;SDS011;57902;49.638;11.070;2024-03-25T03:51:04;5.63;;;2.45;;
70444;SDS011;57902;49.638;11.070;2024-03-25T03:53:31;7.22;;;2.58;;
70444;SDS011;57902;49.638;11.070;2024-03-25T03:56:01;6.13;;;2.50;;
70444;SDS011;57902;49.638;11.070;2024-03-25T03:58:29;6.90;;;2.45;;
70444;SDS011;57902;49.638;11.070;2024-03-25T04:00:55;7.53;;;2.90;;
70444;SDS011;57902;49.638;11.070;2024-03-25T04:03:20;7.68;;;2.83;;
70444;SDS011;57902;49.638;11.070;2024-03-25T04:05:46;9.43;;;3.20;;
70444;SDS011;57902;49.638;11.070;2024-03-25T04:08:12;7.85;;;2.65;;
70444;SDS011;57902;49.638;11.070;2024-03-25T04:10:38;7.05;;;2.92;;
70444;SDS011;57902;49.638;11.070;2024-03-25T04:13:04;9.15;;;2.70;;
70444;SDS011;57902;49.638;11.070;2024-03-25T04:15:34;6.38;;;2.50;;
70444;SDS011;57902;49.638;11.070;2024-03-25T04:18:00;6.82;;;2.50;;
70444;SDS011;57902;49.638;11.070;2024-03-25T04:20:29;8.13;;;2.92;;
70444;SDS011;57902;49.638;11.070;2024-03-25T04:22:55;5.53;;;2.45;;
70444;SDS011;57902;49.638;11.070;2024-03-25T04:25:21;6.93;;;2.65;;
70444;SDS011;57902;49.638;11.070;2024-03-25T04:27:48;6.70;;;2.70;;
70444;SDS011;57902;49.638;11.070;2024-03-25T04:30:13;7.22;;;2.58;;
70444;SDS011;57902;49.638;11.070;2024-03-25T04:32:39;7.93;;;2.55;;
70444;SDS011;57902;49.638;11.070;2024-03-25T04:35:06;6.88;;;2.88;;
70444;SDS011;57902;49.638;11.070;2024-03-25T04:37:32;6.03;;;2.63;;
70444;SDS011;57902;49.638;11.070;2024-03-25T04:39:59;7.30;;;2.60;;
70444;SDS011;57902;49.638;11.070;2024-03-25T04:42:24;6.45;;;2.58;;
70444;SDS011;57902;49.638;11.070;2024-03-25T04:44:50;9.63;;;3.35;;
70444;SDS011;57902;49.638;11.070;2024-03-25T04:47:16;7.60;;;3.08;;
70444;SDS011;57902;49.638;11.070;2024-03-25T04:49:42;6.40;;;2.88;;
70444;SDS011;57902;49.638;11.070;2024-03-25T04:52:08;8.13;;;3.00;;
70444;SDS011;57902;49.638;11.070;2024-03-25T04:54:34;9.55;;;3.35;;
70444;SDS011;57902;49.638;11.070;2024-03-25T04:57:00;8.15;;;2.90;;
70444;SDS011;57902;49.638;11.070;2024-03-25T04:59:25;9.52;;;2.75;;
70444;SDS011;57902;49.638;11.070;2024-03-25T05:01:51;6.68;;;2.95;;
70444;SDS011;57902;49.638;11.070;2024-03-25T05:04:18;10.30;;;3.30;;
70444;SDS011;57902;49.638;11.070;2024-03-25T05:06:44;8.40;;;2.67;;
70444;SDS011;57902;49.638;11.070;2024-03-25T05:09:09;9.98;;;3.50;;
70444;SDS011;57902;49.638;11.070;2024-03-25T05:11:35;6.60;;;2.88;;
70444;SDS011;57902;49.638;11.070;2024-03-25T05:14:01;9.18;;;2.92;;
70444;SDS011;57902;49.638;11.070;2024-03-25T05:16:27;7.15;;;2.83;;
70444;SDS011;57902;49.638;11.070;2024-03-25T05:18:52;10.05;;;3.50;;
70444;SDS011;57902;49.638;11.070;2024-03-25T05:21:18;7.22;;;2.78;;
70444;SDS011;57902;49.638;11.070;2024-03-25T05:23:44;6.72;;;2.80;;
70444;SDS011;57902;49.638;11.070;2024-03-25T05:26:10;8.40;;;2.78;;
70444;SDS011;57902;49.638;11.070;2024-03-25T05:28:35;7.72;;;3.10;;
70444;SDS011;57902;49.638;11.070;2024-03-25T05:31:07;7.63;;;3.25;;
70444;SDS011;57902;49.638;11.070;2024-03-25T05:33:36;9.98;;;3.20;;
70444;SDS011;57902;49.638;11.070;2024-03-25T05:36:02;10.93;;;3.22;;
70444;SDS011;57902;49.638;11.070;2024-03-25T05:38:28;8.90;;;3.22;;
70444;SDS011;57902;49.638;11.070;2024-03-25T05:40:54;9.55;;;3.50;;
70444;SDS011;57902;49.638;11.070;2024-03-25T05:43:20;9.38;;;2.85;;
70444;SDS011;57902;49.638;11.070;2024-03-25T05:45:55;10.30;;;3.08;;
70444;SDS011;57902;49.638;11.070;2024-03-25T05:48:21;6.68;;;2.75;;
70444;SDS011;57902;49.638;11.070;2024-03-25T05:50:59;6.68;;;2.80;;
70444;SDS011;57902;49.638;11.070;2024-03-25T05:53:25;6.22;;;2.50;;
70444;SDS011;57902;49.638;11.070;2024-03-25T05:55:52;10.00;;;3.05;;
70444;SDS011;57902;49.638;11.070;2024-03-25T05:58:18;8.68;;;2.97;;
70444;SDS011;57902;49.638;11.070;2024-03-25T06:00:43;7.28;;;2.40;;
70444;SDS011;57902;49.638;11.070;2024-03-25T06:03:11;6.47;;;2.60;;
70444;SDS011;57902;49.638;11.070;2024-03-25T06:05:37;6.72;;;2.53;;
70444;SDS011;57902;49.638;11.070;2024-03-25T06:08:03;8.85;;;2.80;;
70444;SDS011;57902;49.638;11.070;2024-03-25T06:10:29;6.57;;;2.50;;
70444;SDS011;57902;49.638;11.070;2024-03-25T06:12:54;8.70;;;2.90;;
70444;SDS011;57902;49.638;11.070;2024-03-25T06:15:20;9.90;;;2.83;;
70444;SDS011;57902;49.638;11.070;2024-03-25T06:17:45;6.47;;;2.55;;
70444;SDS011;57902;49.638;11.070;2024-03-25T06:20:11;9.18;;;2.83;;
70444;SDS011;57902;49.638;11.070;2024-03-25T06:22:36;8.77;;;2.83;;
70444;SDS011;57902;49.638;11.070;2024-03-25T06:25:02;6.55;;;2.67;;
70444;SDS011;57902;49.638;11.070;2024-03-25T06:27:28;6.78;;;2.35;;
70444;SDS011;57902;49.638;11.070;2024-03-25T06:29:55;8.73;;;2.72;;
70444;SDS011;57902;49.638;11.070;2024-03-25T06:32:40;9.60;;;2.80;;
70444;SDS011;57902;49.638;11.070;2024-03-25T06:35:24;8.07;;;2.22;;
70444;SDS011;57902;49.638;11.070;2024-03-25T06:37:50;6.65;;;2.55;;
70444;SDS011;57902;49.638;11.070;2024-03-25T06:40:15;7.30;;;2.50;;
70444;SDS011;57902;49.638;11.070;2024-03-25T06:42:41;9.32;;;2.38;;
70444;SDS011;57902;49.638;11.070;2024-03-25T06:45:06;11.95;;;2.88;;
70444;SDS011;57902;49.638;11.070;2024-03-25T06:47:32;9.73;;;3.03;;
70444;SDS011;57902;49.638;11.070;2024-03-25T06:49:58;7.93;;;2.42;;
70444;SDS011;57902;49.638;11.070;2024-03-25T06:52:23;8.07;;;2.20;;
70444;SDS011;57902;49.638;11.070;2024-03-25T06:54:49;14.98;;;3.05;;
70444;SDS011;57902;49.638;11.070;2024-03-25T06:57:15;7.90;;;2.17;;
70444;SDS011;57902;49.638;11.070;2024-03-25T06:59:40;8.40;;;2.92;;
70444;SDS011;57902;49.638;11.070;2024-03-25T07:02:06;6.75;;;2.70;;
70444;SDS011;57902;49.638;11.070;2024-03-25T07:04:32;7.82;;;2.75;;
70444;SDS011;57902;49.638;11.070;2024-03-25T07:06:58;7.45;;;2.50;;
70444;SDS011;57902;49.638;11.070;2024-03-25T07:09:23;7.45;;;2.28;;
70444;SDS011;57902;49.638;11.070;2024-03-25T07:11:50;7.78;;;2.30;;
70444;SDS011;57902;49.638;11.070;2024-03-25T07:14:15;8.48;;;2.47;;
70444;SDS011;57902;49.638;11.070;2024-03-25T07:16:41;6.53;;;2.00;;
70444;SDS011;57902;49.638;11.070;2024-03-25T07:19:06;10.55;;;2.60;;
70444;SDS011;57902;49.638;11.070;2024-03-25T07:21:32;11.77;;;2.70;;
70444;SDS011;57902;49.638;11.070;2024-03-25T07:23:58;8.90;;;2.35;;
70444;SDS011;57902;49.638;11.070;2024-03-25T07:26:23;6.60;;;2.00;;
70444;SDS011;57902;49.638;11.070;2024-03-25T07:28:49;7.78;;;2.63;;
70444;SDS011;57902;49.638;11.070;2024-03-25T07:31:14;9.20;;;3.42;;
70444;SDS011;57902;49.638;11.070;2024-03-25T07:33:40;5.55;;;2.38;;
70444;SDS011;57902;49.638;11.070;2024-03-25T07:36:06;11.05;;;3.33;;
70444;SDS011;57902;49.638;11.070;2024-03-25T07:38:31;9.70;;;3.25;;
70444;SDS011;57902;49.638;11.070;2024-03-25T07:41:02;7.65;;;3.10;;
70444;SDS011;57902;49.638;11.070;2024-03-25T07:43:28;10.60;;;2.72;;
70444;SDS011;57902;49.638;11.070;2024-03-25T07:45:54;9.20;;;2.40;;
70444;SDS011;57902;49.638;11.070;2024-03-25T07:48:20;9.82;;;2.95;;
70444;SDS011;57902;49.638;11.070;2024-03-25T07:50:45;9.07;;;2.38;;
70444;SDS011;57902;49.638;11.070;2024-03-25T07:53:11;9.48;;;2.35;;
70444;SDS011;57902;49.638;11.070;2024-03-25T07:55:36;7.93;;;2.30;;
70444;SDS011;57902;49.638;11.070;2024-03-25T07:58:02;8.05;;;2.22;;
70444;SDS011;57902;49.638;11.070;2024-03-25T08:00:27;9.82;;;2.22;;
70444;SDS011;57902;49.638;11.070;2024-03-25T08:02:53;8.00;;;1.85;;
70444;SDS011;57902;49.638;11.070;2024-03-25T08:05:19;7.60;;;2.13;;
70444;SDS011;57902;49.638;11.070;2024-03-25T08:07:45;7.60;;;1.92;;
70444;SDS011;57902;49.638;11.070;2024-03-25T08:10:10;6.18;;;1.70;;
70444;SDS011;57902;49.638;11.070;2024-03-25T08:12:36;7.53;;;2.08;;
70444;SDS011;57902;49.638;11.070;2024-03-25T08:15:01;7.85;;;2.05;;
70444;SDS011;57902;49.638;11.070;2024-03-25T08:17:28;7.47;;;2.50;;
70444;SDS011;57902;49.638;11.070;2024-03-25T08:19:53;9.13;;;2.00;;
70444;SDS011;57902;49.638;11.070;2024-03-25T08:22:19;4.22;;;1.90;;
70444;SDS011;57902;49.638;11.070;2024-03-25T08:24:45;8.38;;;1.83;;
70444;SDS011;57902;49.638;11.070;2024-03-25T08:27:10;10.13;;;3.83;;
70444;SDS011;57902;49.638;11.070;2024-03-25T08:29:36;10.07;;;2.55;;
70444;SDS011;57902;49.638;11.070;2024-03-25T08:32:02;6.28;;;2.65;;
70444;SDS011;57902;49.638;11.070;2024-03-25T08:34:27;5.95;;;1.83;;
70444;SDS011;57902;49.638;11.070;2024-03-25T08:36:53;5.72;;;1.83;;
70444;SDS011;57902;49.638;11.070;2024-03-25T08:39:18;10.50;;;2.58;;
70444;SDS011;57902;49.638;11.070;2024-03-25T08:41:44;6.15;;;1.98;;
70444;SDS011;57902;49.638;11.070;2024-03-25T08:44:09;5.70;;;1.95;;
70444;SDS011;57902;49.638;11.070;2024-03-25T08:46:36;8.38;;;2.17;;
70444;SDS011;57902;49.638;11.070;2024-03-25T08:49:03;5.07;;;1.80;;
70444;SDS011;57902;49.638;11.070;2024-03-25T08:51:28;9.63;;;2.10;;
70444;SDS011;57902;49.638;11.070;2024-03-25T08:53:54;7.13;;;1.77;;
70444;SDS011;57902;49.638;11.070;2024-03-25T08:56:19;8.70;;;1.80;;
70444;SDS011;57902;49.638;11.070;2024-03-25T08:58:45;8.27;;;1.95;;
70444;SDS011;57902;49.638;11.070;2024-03-25T09:01:10;7.30;;;1.92;;
70444;SDS011;57902;49.638;11.070;2024-03-25T09:03:39;8.65;;;2.20;;
70444;SDS011;57902;49.638;11.070;2024-03-25T09:06:06;10.95;;;2.00;;
70444;SDS011;57902;49.638;11.070;2024-03-25T09:08:33;7.18;;;1.63;;
70444;SDS011;57902;49.638;11.070;2024-03-25T09:11:19;6.28;;;1.75;;
70444;SDS011;57902;49.638;11.070;2024-03-25T09:13:44;6.07;;;1.85;;
70444;SDS011;57902;49.638;11.070;2024-03-25T09:16:10;6.97;;;1.80;;
70444;SDS011;57902;49.638;11.070;2024-03-25T09:18:35;6.63;;;1.77;;
70444;SDS011;57902;49.638;11.070;2024-03-25T09:21:01;5.63;;;1.88;;
70444;SDS011;57902;49.638;11.070;2024-03-25T09:23:27;7.20;;;1.73;;
70444;SDS011;57902;49.638;11.070;2024-03-25T09:25:53;4.38;;;1.60;;
70444;SDS011;57902;49.638;11.070;2024-03-25T09:28:19;5.57;;;1.60;;
70444;SDS011;57902;49.638;11.070;2024-03-25T09:30:44;5.50;;;1.75;;
70444;SDS011;57902;49.638;11.070;2024-03-25T09:33:10;5.10;;;1.60;;
70444;SDS011;57902;49.638;11.070;2024-03-25T09:35:35;7.70;;;1.77;;
70444;SDS011;57902;49.638;11.070;2024-03-25T09:38:02;5.20;;;1.40;;
70444;SDS011;57902;49.638;11.070;2024-03-25T09:40:28;4.95;;;1.20;;
70444;SDS011;57902;49.638;11.070;2024-03-25T09:42:57;6.05;;;1.30;;
70444;SDS011;57902;49.638;11.070;2024-03-25T09:45:26;5.30;;;1.65;;
70444;SDS011;57902;49.638;11.070;2024-03-25T09:47:53;5.70;;;0.93;;
70444;SDS011;57902;49.638;11.070;2024-03-25T09:50:20;2.28;;;1.05;;
70444;SDS011;57902;49.638;11.070;2024-03-25T09:52:47;3.22;;;1.00;;
70444;SDS011;57902;49.638;11.070;2024-03-25T09:55:13;1.98;;;0.88;;
70444;SDS011;57902;49.638;11.070;2024-03-25T09:57:39;3.88;;;0.95;;
70444;SDS011;57902;49.638;11.070;2024-03-25T10:00:07;2.65;;;1.08;;
70444;SDS011;57902;49.638;11.070;2024-03-25T10:02:34;7.32;;;1.40;;
70444;SDS011;57902;49.638;11.070;2024-03-25T10:05:02;4.53;;;1.20;;
70444;SDS011;57902;49.638;11.070;2024-03-25T10:07:28;6.60;;;1.17;;
70444;SDS011;57902;49.638;11.070;2024-03-25T10:09:54;4.15;;;1.33;;
70444;SDS011;57902;49.638;11.070;2024-03-25T10:12:19;5.88;;;1.73;;
70444;SDS011;57902;49.638;11.070;2024-03-25T10:14:45;8.23;;;1.52;;
70444;SDS011;57902;49.638;11.070;2024-03-25T10:17:11;8.00;;;1.63;;
70444;SDS011;57902;49.638;11.070;2024-03-25T10:19:36;5.32;;;1.83;;
70444;SDS011;57902;49.638;11.070;2024-03-25T10:24:36;5.55;;;1.67;;
70444;SDS011;57902;49.638;11.070;2024-03-25T10:27:02;4.60;;;1.65;;
70444;SDS011;57902;49.638;11.070;2024-03-25T10:29:29;8.15;;;2.10;;
70444;SDS011;57902;49.638;11.070;2024-03-25T10:31:58;3.88;;;1.55;;
70444;SDS011;57902;49.638;11.070;2024-03-25T10:34:24;4.88;;;1.30;;
70444;SDS011;57902;49.638;11.070;2024-03-25T10:36:50;4.15;;;1.40;;
70444;SDS011;57902;49.638;11.070;2024-03-25T10:39:21;6.03;;;1.52;;
70444;SDS011;57902;49.638;11.070;2024-03-25T10:41:54;5.95;;;1.40;;
70444;SDS011;57902;49.638;11.070;2024-03-25T10:44:22;6.65;;;1.67;;
70444;SDS011;57902;49.638;11.070;2024-03-25T10:46:59;4.78;;;1.65;;
70444;SDS011;57902;49.638;11.070;2024-03-25T10:49:33;3.83;;;1.25;;
70444;SDS011;57902;49.638;11.070;2024-03-25T10:52:03;4.38;;;1.50;;
70444;SDS011;57902;49.638;11.070;2024-03-25T10:54:31;8.75;;;1.60;;
70444;SDS011;57902;49.638;11.070;2024-03-25T10:57:01;6.10;;;1.90;;
70444;SDS011;57902;49.638;11.070;2024-03-25T10:59:29;5.82;;;1.48;;
70444;SDS011;57902;49.638;11.070;2024-03-25T11:01:55;5.45;;;1.38;;
70444;SDS011;57902;49.638;11.070;2024-03-25T11:04:22;4.18;;;1.33;;
70444;SDS011;57902;49.638;11.070;2024-03-25T11:06:50;5.40;;;1.50;;
70444;SDS011;57902;49.638;11.070;2024-03-25T11:09:24;3.70;;;1.20;;
70444;SDS011;57902;49.638;11.070;2024-03-25T11:11:53;4.93;;;1.27;;
70444;SDS011;57902;49.638;11.070;2024-03-25T11:14:19;6.18;;;1.38;;
70444;SDS011;57902;49.638;11.070;2024-03-25T11:16:51;6.18;;;1.65;;
70444;SDS011;57902;49.638;11.070;2024-03-25T11:19:20;5.72;;;1.70;;
70444;SDS011;57902;49.638;11.070;2024-03-25T11:21:50;4.55;;;1.50;;
70444;SDS011;57902;49.638;11.070;2024-03-25T11:24:16;6.07;;;1.30;;
70444;SDS011;57902;49.638;11.070;2024-03-25T11:26:53;11.57;;;3.53;;
70444;SDS011;57902;49.638;11.070;2024-03-25T11:29:18;5.63;;;1.67;;
70444;SDS011;57902;49.638;11.070;2024-03-25T11:31:44;4.82;;;1.42;;
70444;SDS011;57902;49.638;11.070;2024-03-25T11:34:10;4.68;;;1.30;;
70444;SDS011;57902;49.638;11.070;2024-03-25T11:36:35;4.80;;;1.30;;
70444;SDS011;57902;49.638;11.070;2024-03-25T11:39:02;3.72;;;1.40;;
70444;SDS011;57902;49.638;11.070;2024-03-25T11:41:41;3.33;;;1.40;;
70444;SDS011;57902;49.638;11.070;2024-03-25T11:44:07;5.72;;;1.40;;
70444;SDS011;57902;49.638;11.070;2024-03-25T11:46:35;3.90;;;1.38;;
70444;SDS011;57902;49.638;11.070;2024-03-25T11:49:01;3.83;;;1.38;;
70444;SDS011;57902;49.638;11.070;2024-03-25T11:51:27;4.63;;;1.40;;
70444;SDS011;57902;49.638;11.070;2024-03-25T11:53:53;6.75;;;1.38;;
70444;SDS011;57902;49.638;11.070;2024-03-25T11:56:18;5.85;;;1.33;;
70444;SDS011;57902;49.638;11.070;2024-03-25T11:58:44;5.65;;;1.58;;
70444;SDS011;57902;49.638;11.070;2024-03-25T12:01:10;6.00;;;1.65;;
70444;SDS011;57902;49.638;11.070;2024-03-25T12:03:36;5.03;;;1.52;;
70444;SDS011;57902;49.638;11.070;2024-03-25T12:06:02;7.43;;;1.40;;
70444;SDS011;57902;49.638;11.070;2024-03-25T12:08:27;4.38;;;1.38;;
70444;SDS011;57902;49.638;11.070;2024-03-25T12:10:55;9.35;;;2.40;;
70444;SDS011;57902;49.638;11.070;2024-03-25T12:13:39;3.80;;;1.50;;
70444;SDS011;57902;49.638;11.070;2024-03-25T12:16:06;7.10;;;1.67;;
70444;SDS011;57902;49.638;11.070;2024-03-25T12:18:33;5.18;;;1.50;;
70444;SDS011;57902;49.638;11.070;2024-03-25T12:21:04;6.75;;;1.38;;
70444;SDS011;57902;49.638;11.070;2024-03-25T12:23:30;4.15;;;1.30;;
70444;SDS011;57902;49.638;11.070;2024-03-25T12:25:58;3.47;;;1.33;;
70444;SDS011;57902;49.638;11.070;2024-03-25T12:30:51;5.07;;;1.38;;
70444;SDS011;57902;49.638;11.070;2024-03-25T12:33:18;7.53;;;2.35;;
70444;SDS011;57902;49.638;11.070;2024-03-25T12:35:48;4.93;;;1.50;;
70444;SDS011;57902;49.638;11.070;2024-03-25T12:38:28;5.85;;;1.85;;
70444;SDS011;57902;49.638;11.070;2024-03-25T12:43:43;3.47;;;1.13;;
70444;SDS011;57902;49.638;11.070;2024-03-25T12:46:10;2.92;;;1.40;;
70444;SDS011;57902;49.638;11.070;2024-03-25T12:48:36;4.57;;;1.40;;
70444;SDS011;57902;49.638;11.070;2024-03-25T12:51:03;6.10;;;1.52;;
70444;SDS011;57902;49.638;11.070;2024-03-25T12:53:29;4.35;;;1.30;;
70444;SDS011;57902;49.638;11.070;2024-03-25T12:55:54;4.30;;;1.30;;
70444;SDS011;57902;49.638;11.070;2024-03-25T12:58:20;4.72;;;1.40;;
70444;SDS011;57902;49.638;11.070;2024-03-25T13:00:45;3.55;;;1.30;;
70444;SDS011;57902;49.638;11.070;2024-03-25T13:03:26;6.40;;;1.50;;
70444;SDS011;57902;49.638;11.070;2024-03-25T13:05:52;4.20;;;1.40;;
70444;SDS011;57902;49.638;11.070;2024-03-25T13:08:19;4.65;;;1.13;;
70444;SDS011;57902;49.638;11.070;2024-03-25T13:10:49;4.30;;;1.38;;
70444;SDS011;57902;49.638;11.070;2024-03-25T13:13:15;6.35;;;1.50;;
70444;SDS011;57902;49.638;11.070;2024-03-25T13:15:56;3.05;;;1.25;;
70444;SDS011;57902;49.638;11.070;2024-03-25T13:18:22;6.03;;;1.50;;
70444;SDS011;57902;49.638;11.070;2024-03-25T13:20:51;5.07;;;1.80;;
70444;SDS011;57902;49.638;11.070;2024-03-25T13:23:21;4.35;;;1.48;;
70444;SDS011;57902;49.638;11.070;2024-03-25T13:28:44;4.72;;;1.40;;
70444;SDS011;57902;49.638;11.070;2024-03-25T13:34:08;2.97;;;1.30;;
70444;SDS011;57902;49.638;11.070;2024-03-25T13:39:26;2.90;;;1.13;;
70444;SDS011;57902;49.638;11.070;2024-03-25T13:41:52;4.30;;;1.20;;
70444;SDS011;57902;49.638;11.070;2024-03-25T13:44:17;3.85;;;1.30;;
70444;SDS011;57902;49.638;11.070;2024-03-25T13:46:43;3.65;;;1.20;;
70444;SDS011;57902;49.638;11.070;2024-03-25T13:49:09;4.78;;;1.40;;
70444;SDS011;57902;49.638;11.070;2024-03-25T13:51:36;4.90;;;1.20;;
70444;SDS011;57902;49.638;11.070;2024-03-25T13:54:01;3.65;;;1.20;;
70444;SDS011;57902;49.638;11.070;2024-03-25T13:56:28;5.03;;;1.30;;
70444;SDS011;57902;49.638;11.070;2024-03-25T13:58:53;4.55;;;1.45;;
70444;SDS011;57902;49.638;11.070;2024-03-25T14:01:19;5.25;;;1.55;;
70444;SDS011;57902;49.638;11.070;2024-03-25T14:03:44;4.55;;;1.33;;
70444;SDS011;57902;49.638;11.070;2024-03-25T14:06:11;5.13;;;1.50;;
70444;SDS011;57902;49.638;11.070;2024-03-25T14:08:37;5.15;;;1.42;;
70444;SDS011;57902;49.638;11.070;2024-03-25T14:11:02;3.38;;;1.33;;
70444;SDS011;57902;49.638;11.070;2024-03-25T14:13:28;3.63;;;1.23;;
70444;SDS011;57902;49.638;11.070;2024-03-25T14:15:54;4.13;;;1.40;;
70444;SDS011;57902;49.638;11.070;2024-03-25T14:18:20;5.20;;;2.33;;
70444;SDS011;57902;49.638;11.070;2024-03-25T14:20:45;4.82;;;1.20;;
70444;SDS011;57902;49.638;11.070;2024-03-25T14:23:11;5.25;;;1.13;;
70444;SDS011;57902;49.638;11.070;2024-03-25T14:25:38;4.30;;;1.52;;
70444;SDS011;57902;49.638;11.070;2024-03-25T14:28:03;5.85;;;1.40;;
70444;SDS011;57902;49.638;11.070;2024-03-25T14:30:29;4.50;;;1.40;;
70444;SDS011;57902;49.638;11.070;2024-03-25T14:32:54;3.30;;;1.40;;
70444;SDS011;57902;49.638;11.070;2024-03-25T14:35:21;4.97;;;1.30;;
70444;SDS011;57902;49.638;11.070;2024-03-25T14:37:46;5.65;;;1.42;;
70444;SDS011;57902;49.638;11.070;2024-03-25T14:40:12;4.18;;;1.38;;
70444;SDS011;57902;49.638;11.070;2024-03-25T14:42:38;3.80;;;1.20;;
70444;SDS011;57902;49.638;11.070;2024-03-25T14:45:04;3.20;;;1.20;;
70444;SDS011;57902;49.638;11.070;2024-03-25T14:47:30;2.65;;;1.27;;